sensor_id;sensor_type;location;lat;lon;timestamp;P1;durP1;ratioP1;P2;durP2;ratioP2
77432;SDS011;66752;48.576;8.876;2023-04-29T00:01:57;5.75;;;3.08;;
77432;SDS011;66752;48.576;8.876;2023-04-29T00:04:24;6.40;;;2.80;;
77432;SDS011;66752;48.576;8.876;2023-04-29T00:06:50;5.45;;;3.58;;
77432;SDS011;66752;48.576;8.876;2023-04-29T00:09:16;6.05;;;2.95;;
77432;SDS011;66752;48.576;8.876;2023-04-29T00:11:42;5.68;;;2.88;;
77432;SDS011;66752;48.576;8.876;2023-04-29T00:14:08;5.00;;;3.03;;
77432;SDS011;66752;48.576;8.876;2023-04-29T00:16:34;5.60;;;2.85;;
77432;SDS011;66752;48.576;8.876;2023-04-29T00:19:00;5.03;;;2.80;;
77432;SDS011;66752;48.576;8.876;2023-04-29T00:21:27;5.20;;;3.10;;
77432;SDS011;66752;48.576;8.876;2023-04-29T00:23:53;5.90;;;3.13;;
77432;SDS011;66752;48.576;8.876;2023-04-29T00:26:19;6.35;;;3.17;;
77432;SDS011;66752;48.576;8.876;2023-04-29T00:28:45;5.97;;;2.88;;
77432;SDS011;66752;48.576;8.876;2023-04-29T00:31:11;5.82;;;2.83;;
77432;SDS011;66752;48.576;8.876;2023-04-29T00:33:37;5.43;;;2.67;;
77432;SDS011;66752;48.576;8.876;2023-04-29T00:36:04;5.97;;;2.75;;
77432;SDS011;66752;48.576;8.876;2023-04-29T00:38:30;5.43;;;3.00;;
77432;SDS011;66752;48.576;8.876;2023-04-29T00:40:56;5.22;;;2.72;;
77432;SDS011;66752;48.576;8.876;2023-04-29T00:43:22;4.47;;;2.38;;
77432;SDS011;66752;48.576;8.876;2023-04-29T00:45:48;5.40;;;3.15;;
77432;SDS011;66752;48.576;8.876;2023-04-29T00:48:15;4.80;;;2.50;;
77432;SDS011;66752;48.576;8.876;2023-04-29T00:50:41;5.38;;;2.97;;
77432;SDS011;66752;48.576;8.876;2023-04-29T00:53:07;4.57;;;2.47;;
77432;SDS011;66752;48.576;8.876;2023-04-29T00:57:59;5.05;;;2.60;;
77432;SDS011;66752;48.576;8.876;2023-04-29T01:00:28;5.13;;;2.63;;
77432;SDS011;66752;48.576;8.876;2023-04-29T01:02:54;4.75;;;2.55;;
77432;SDS011;66752;48.576;8.876;2023-04-29T01:10:34;4.93;;;2.75;;
77432;SDS011;66752;48.576;8.876;2023-04-29T01:18:09;5.60;;;3.22;;
77432;SDS011;66752;48.576;8.876;2023-04-29T01:20:37;6.72;;;2.85;;
77432;SDS011;66752;48.576;8.876;2023-04-29T01:23:03;6.03;;;2.65;;
77432;SDS011;66752;48.576;8.876;2023-04-29T01:25:29;5.05;;;2.50;;
77432;SDS011;66752;48.576;8.876;2023-04-29T01:30:50;7.88;;;5.25;;
77432;SDS011;66752;48.576;8.876;2023-04-29T01:40:39;5.07;;;2.60;;
77432;SDS011;66752;48.576;8.876;2023-04-29T01:43:07;6.05;;;2.45;;
77432;SDS011;66752;48.576;8.876;2023-04-29T01:45:35;4.40;;;2.58;;
77432;SDS011;66752;48.576;8.876;2023-04-29T01:48:06;5.80;;;1.92;;
77432;SDS011;66752;48.576;8.876;2023-04-29T01:50:33;5.45;;;2.92;;
77432;SDS011;66752;48.576;8.876;2023-04-29T01:52:59;5.32;;;2.80;;
77432;SDS011;66752;48.576;8.876;2023-04-29T01:55:25;7.82;;;2.95;;
77432;SDS011;66752;48.576;8.876;2023-04-29T01:57:51;6.20;;;3.17;;
77432;SDS011;66752;48.576;8.876;2023-04-29T02:00:17;5.97;;;2.63;;
77432;SDS011;66752;48.576;8.876;2023-04-29T02:02:43;4.78;;;2.78;;
77432;SDS011;66752;48.576;8.876;2023-04-29T02:05:09;5.07;;;2.83;;
77432;SDS011;66752;48.576;8.876;2023-04-29T02:07:35;5.82;;;3.10;;
77432;SDS011;66752;48.576;8.876;2023-04-29T02:10:01;5.38;;;2.88;;
77432;SDS011;66752;48.576;8.876;2023-04-29T02:12:27;5.95;;;2.97;;
77432;SDS011;66752;48.576;8.876;2023-04-29T02:14:53;5.38;;;2.92;;
77432;SDS011;66752;48.576;8.876;2023-04-29T02:17:19;7.40;;;3.22;;
77432;SDS011;66752;48.576;8.876;2023-04-29T02:19:45;5.40;;;2.67;;
77432;SDS011;66752;48.576;8.876;2023-04-29T02:22:11;7.53;;;3.50;;
77432;SDS011;66752;48.576;8.876;2023-04-29T02:24:37;7.82;;;4.38;;
77432;SDS011;66752;48.576;8.876;2023-04-29T02:27:03;5.75;;;3.20;;
77432;SDS011;66752;48.576;8.876;2023-04-29T02:29:30;5.88;;;3.38;;
77432;SDS011;66752;48.576;8.876;2023-04-29T02:31:57;6.10;;;3.15;;
77432;SDS011;66752;48.576;8.876;2023-04-29T02:34:23;6.57;;;3.20;;
77432;SDS011;66752;48.576;8.876;2023-04-29T02:36:49;5.60;;;2.78;;
77432;SDS011;66752;48.576;8.876;2023-04-29T02:39:15;5.00;;;2.55;;
77432;SDS011;66752;48.576;8.876;2023-04-29T02:41:41;5.78;;;2.70;;
77432;SDS011;66752;48.576;8.876;2023-04-29T02:44:07;4.68;;;2.70;;
77432;SDS011;66752;48.576;8.876;2023-04-29T02:46:33;7.03;;;3.38;;
77432;SDS011;66752;48.576;8.876;2023-04-29T02:49:00;7.55;;;3.78;;
77432;SDS011;66752;48.576;8.876;2023-04-29T02:51:27;5.53;;;3.25;;
77432;SDS011;66752;48.576;8.876;2023-04-29T02:53:54;8.18;;;2.95;;
77432;SDS011;66752;48.576;8.876;2023-04-29T02:56:20;7.40;;;3.60;;
77432;SDS011;66752;48.576;8.876;2023-04-29T02:58:47;6.68;;;3.72;;
77432;SDS011;66752;48.576;8.876;2023-04-29T03:01:13;6.20;;;3.80;;
77432;SDS011;66752;48.576;8.876;2023-04-29T03:03:39;6.90;;;3.60;;
77432;SDS011;66752;48.576;8.876;2023-04-29T03:06:05;7.03;;;3.15;;
77432;SDS011;66752;48.576;8.876;2023-04-29T03:08:31;6.38;;;3.78;;
77432;SDS011;66752;48.576;8.876;2023-04-29T03:10:57;6.22;;;3.33;;
77432;SDS011;66752;48.576;8.876;2023-04-29T03:13:23;7.25;;;3.60;;
77432;SDS011;66752;48.576;8.876;2023-04-29T03:15:49;7.32;;;3.72;;
77432;SDS011;66752;48.576;8.876;2023-04-29T03:18:15;6.93;;;3.78;;
77432;SDS011;66752;48.576;8.876;2023-04-29T03:20:40;7.82;;;4.80;;
77432;SDS011;66752;48.576;8.876;2023-04-29T03:23:06;6.72;;;4.18;;
77432;SDS011;66752;48.576;8.876;2023-04-29T03:25:32;7.05;;;4.18;;
77432;SDS011;66752;48.576;8.876;2023-04-29T03:27:58;7.35;;;4.28;;
77432;SDS011;66752;48.576;8.876;2023-04-29T03:30:24;6.60;;;4.03;;
77432;SDS011;66752;48.576;8.876;2023-04-29T03:32:50;6.85;;;4.28;;
77432;SDS011;66752;48.576;8.876;2023-04-29T03:35:16;7.75;;;4.15;;
77432;SDS011;66752;48.576;8.876;2023-04-29T03:37:42;7.88;;;4.68;;
77432;SDS011;66752;48.576;8.876;2023-04-29T03:40:09;9.95;;;5.10;;
77432;SDS011;66752;48.576;8.876;2023-04-29T03:42:35;7.75;;;5.00;;
77432;SDS011;66752;48.576;8.876;2023-04-29T03:45:01;6.95;;;4.28;;
77432;SDS011;66752;48.576;8.876;2023-04-29T03:47:27;8.75;;;4.82;;
77432;SDS011;66752;48.576;8.876;2023-04-29T03:49:53;10.30;;;4.95;;
77432;SDS011;66752;48.576;8.876;2023-04-29T03:52:19;14.23;;;6.03;;
77432;SDS011;66752;48.576;8.876;2023-04-29T03:54:45;14.43;;;7.85;;
77432;SDS011;66752;48.576;8.876;2023-04-29T03:57:11;8.38;;;3.80;;
77432;SDS011;66752;48.576;8.876;2023-04-29T03:59:37;5.38;;;3.17;;
77432;SDS011;66752;48.576;8.876;2023-04-29T04:02:04;5.97;;;3.22;;
77432;SDS011;66752;48.576;8.876;2023-04-29T04:04:29;5.13;;;2.45;;
77432;SDS011;66752;48.576;8.876;2023-04-29T04:06:55;4.53;;;2.38;;
77432;SDS011;66752;48.576;8.876;2023-04-29T04:09:21;4.68;;;2.65;;
77432;SDS011;66752;48.576;8.876;2023-04-29T04:11:47;6.70;;;2.65;;
77432;SDS011;66752;48.576;8.876;2023-04-29T04:14:13;4.85;;;2.58;;
77432;SDS011;66752;48.576;8.876;2023-04-29T04:16:39;5.70;;;2.63;;
77432;SDS011;66752;48.576;8.876;2023-04-29T04:19:05;4.97;;;3.00;;
77432;SDS011;66752;48.576;8.876;2023-04-29T04:21:31;8.63;;;3.10;;
77432;SDS011;66752;48.576;8.876;2023-04-29T04:23:57;4.90;;;2.88;;
77432;SDS011;66752;48.576;8.876;2023-04-29T04:26:23;4.55;;;2.60;;
77432;SDS011;66752;48.576;8.876;2023-04-29T04:28:49;7.55;;;5.10;;
77432;SDS011;66752;48.576;8.876;2023-04-29T04:31:15;6.88;;;3.85;;
77432;SDS011;66752;48.576;8.876;2023-04-29T04:33:41;5.82;;;3.78;;
77432;SDS011;66752;48.576;8.876;2023-04-29T04:36:07;5.43;;;3.25;;
77432;SDS011;66752;48.576;8.876;2023-04-29T04:38:33;5.78;;;4.00;;
77432;SDS011;66752;48.576;8.876;2023-04-29T04:40:59;6.53;;;3.65;;
77432;SDS011;66752;48.576;8.876;2023-04-29T04:43:25;6.22;;;3.45;;
77432;SDS011;66752;48.576;8.876;2023-04-29T04:45:51;5.93;;;3.50;;
77432;SDS011;66752;48.576;8.876;2023-04-29T04:48:17;4.95;;;3.13;;
77432;SDS011;66752;48.576;8.876;2023-04-29T04:50:43;5.25;;;2.67;;
77432;SDS011;66752;48.576;8.876;2023-04-29T04:53:09;5.97;;;3.30;;
77432;SDS011;66752;48.576;8.876;2023-04-29T04:55:35;5.47;;;3.42;;
77432;SDS011;66752;48.576;8.876;2023-04-29T04:58:01;5.25;;;3.05;;
77432;SDS011;66752;48.576;8.876;2023-04-29T05:00:27;5.32;;;3.33;;
77432;SDS011;66752;48.576;8.876;2023-04-29T05:02:53;6.93;;;3.67;;
77432;SDS011;66752;48.576;8.876;2023-04-29T05:05:19;6.25;;;3.25;;
77432;SDS011;66752;48.576;8.876;2023-04-29T05:07:45;6.78;;;3.65;;
77432;SDS011;66752;48.576;8.876;2023-04-29T05:10:11;6.97;;;3.42;;
77432;SDS011;66752;48.576;8.876;2023-04-29T05:12:37;10.02;;;4.22;;
77432;SDS011;66752;48.576;8.876;2023-04-29T05:15:03;5.80;;;3.47;;
77432;SDS011;66752;48.576;8.876;2023-04-29T05:17:29;6.50;;;3.78;;
77432;SDS011;66752;48.576;8.876;2023-04-29T05:19:55;6.70;;;3.78;;
77432;SDS011;66752;48.576;8.876;2023-04-29T05:22:21;5.75;;;3.58;;
77432;SDS011;66752;48.576;8.876;2023-04-29T05:24:47;8.13;;;5.80;;
77432;SDS011;66752;48.576;8.876;2023-04-29T05:27:13;6.85;;;4.60;;
77432;SDS011;66752;48.576;8.876;2023-04-29T05:29:39;5.90;;;4.10;;
77432;SDS011;66752;48.576;8.876;2023-04-29T05:32:05;5.55;;;4.20;;
77432;SDS011;66752;48.576;8.876;2023-04-29T05:34:32;6.20;;;3.45;;
77432;SDS011;66752;48.576;8.876;2023-04-29T05:36:58;5.70;;;3.45;;
77432;SDS011;66752;48.576;8.876;2023-04-29T05:39:24;6.95;;;3.78;;
77432;SDS011;66752;48.576;8.876;2023-04-29T05:41:50;5.65;;;3.15;;
77432;SDS011;66752;48.576;8.876;2023-04-29T05:44:16;5.03;;;3.10;;
77432;SDS011;66752;48.576;8.876;2023-04-29T05:46:42;6.68;;;3.60;;
77432;SDS011;66752;48.576;8.876;2023-04-29T05:49:08;5.55;;;3.67;;
77432;SDS011;66752;48.576;8.876;2023-04-29T05:51:34;5.78;;;3.17;;
77432;SDS011;66752;48.576;8.876;2023-04-29T05:54:00;5.03;;;2.50;;
77432;SDS011;66752;48.576;8.876;2023-04-29T05:56:26;5.05;;;2.80;;
77432;SDS011;66752;48.576;8.876;2023-04-29T05:58:52;5.78;;;2.85;;
77432;SDS011;66752;48.576;8.876;2023-04-29T06:01:18;4.85;;;2.30;;
77432;SDS011;66752;48.576;8.876;2023-04-29T06:03:44;3.53;;;1.58;;
77432;SDS011;66752;48.576;8.876;2023-04-29T06:06:10;5.20;;;2.33;;
77432;SDS011;66752;48.576;8.876;2023-04-29T06:08:36;6.43;;;2.55;;
77432;SDS011;66752;48.576;8.876;2023-04-29T06:11:02;5.68;;;2.72;;
77432;SDS011;66752;48.576;8.876;2023-04-29T06:13:29;5.65;;;2.80;;
77432;SDS011;66752;48.576;8.876;2023-04-29T06:15:55;4.53;;;2.40;;
77432;SDS011;66752;48.576;8.876;2023-04-29T06:18:21;3.83;;;1.77;;
77432;SDS011;66752;48.576;8.876;2023-04-29T06:20:47;4.85;;;1.50;;
77432;SDS011;66752;48.576;8.876;2023-04-29T06:23:13;4.07;;;1.70;;
77432;SDS011;66752;48.576;8.876;2023-04-29T06:25:39;4.60;;;2.67;;
77432;SDS011;66752;48.576;8.876;2023-04-29T06:28:05;4.15;;;1.80;;
77432;SDS011;66752;48.576;8.876;2023-04-29T06:30:32;5.47;;;2.28;;
77432;SDS011;66752;48.576;8.876;2023-04-29T06:32:58;11.07;;;4.05;;
77432;SDS011;66752;48.576;8.876;2023-04-29T06:35:24;5.95;;;2.58;;
77432;SDS011;66752;48.576;8.876;2023-04-29T06:37:50;4.40;;;2.03;;
77432;SDS011;66752;48.576;8.876;2023-04-29T06:40:16;3.92;;;1.80;;
77432;SDS011;66752;48.576;8.876;2023-04-29T06:42:42;7.32;;;2.08;;
77432;SDS011;66752;48.576;8.876;2023-04-29T06:45:08;4.75;;;2.42;;
77432;SDS011;66752;48.576;8.876;2023-04-29T06:47:35;4.45;;;1.70;;
77432;SDS011;66752;48.576;8.876;2023-04-29T06:50:01;6.75;;;1.77;;
77432;SDS011;66752;48.576;8.876;2023-04-29T06:54:53;3.40;;;1.30;;
77432;SDS011;66752;48.576;8.876;2023-04-29T06:57:19;3.42;;;1.50;;
77432;SDS011;66752;48.576;8.876;2023-04-29T06:59:45;3.20;;;1.20;;
77432;SDS011;66752;48.576;8.876;2023-04-29T07:04:38;2.75;;;1.10;;
77432;SDS011;66752;48.576;8.876;2023-04-29T07:07:04;3.10;;;1.00;;
77432;SDS011;66752;48.576;8.876;2023-04-29T07:09:30;3.08;;;1.10;;
77432;SDS011;66752;48.576;8.876;2023-04-29T07:11:56;3.05;;;1.20;;
77432;SDS011;66752;48.576;8.876;2023-04-29T07:14:22;3.33;;;1.10;;
77432;SDS011;66752;48.576;8.876;2023-04-29T07:16:52;6.15;;;1.33;;
77432;SDS011;66752;48.576;8.876;2023-04-29T07:19:18;2.45;;;0.93;;
77432;SDS011;66752;48.576;8.876;2023-04-29T07:21:44;3.20;;;1.02;;
77432;SDS011;66752;48.576;8.876;2023-04-29T07:24:10;5.75;;;1.30;;
77432;SDS011;66752;48.576;8.876;2023-04-29T07:26:36;3.65;;;1.30;;
77432;SDS011;66752;48.576;8.876;2023-04-29T07:29:02;3.55;;;1.10;;
77432;SDS011;66752;48.576;8.876;2023-04-29T07:31:28;3.85;;;1.30;;
77432;SDS011;66752;48.576;8.876;2023-04-29T07:33:54;4.75;;;1.27;;
77432;SDS011;66752;48.576;8.876;2023-04-29T07:36:20;2.63;;;0.98;;
77432;SDS011;66752;48.576;8.876;2023-04-29T07:38:46;2.35;;;0.90;;
77432;SDS011;66752;48.576;8.876;2023-04-29T07:41:12;2.83;;;1.08;;
77432;SDS011;66752;48.576;8.876;2023-04-29T07:43:38;4.38;;;1.10;;
77432;SDS011;66752;48.576;8.876;2023-04-29T07:46:04;3.33;;;1.15;;
77432;SDS011;66752;48.576;8.876;2023-04-29T07:48:35;3.38;;;1.30;;
77432;SDS011;66752;48.576;8.876;2023-04-29T07:51:02;2.38;;;0.82;;
77432;SDS011;66752;48.576;8.876;2023-04-29T07:53:28;3.47;;;1.45;;
77432;SDS011;66752;48.576;8.876;2023-04-29T07:55:55;3.40;;;1.33;;
77432;SDS011;66752;48.576;8.876;2023-04-29T07:58:21;2.85;;;1.02;;
77432;SDS011;66752;48.576;8.876;2023-04-29T08:00:47;3.33;;;1.23;;
77432;SDS011;66752;48.576;8.876;2023-04-29T08:03:13;3.25;;;1.08;;
77432;SDS011;66752;48.576;8.876;2023-04-29T08:05:39;3.20;;;1.20;;
77432;SDS011;66752;48.576;8.876;2023-04-29T08:08:07;2.33;;;0.82;;
77432;SDS011;66752;48.576;8.876;2023-04-29T08:10:36;4.60;;;1.30;;
77432;SDS011;66752;48.576;8.876;2023-04-29T08:13:04;3.00;;;1.00;;
77432;SDS011;66752;48.576;8.876;2023-04-29T08:15:30;3.38;;;1.20;;
77432;SDS011;66752;48.576;8.876;2023-04-29T08:17:57;2.97;;;1.30;;
77432;SDS011;66752;48.576;8.876;2023-04-29T08:20:23;3.38;;;1.30;;
77432;SDS011;66752;48.576;8.876;2023-04-29T08:22:49;3.15;;;1.10;;
77432;SDS011;66752;48.576;8.876;2023-04-29T08:25:15;3.45;;;1.30;;
77432;SDS011;66752;48.576;8.876;2023-04-29T08:27:41;3.30;;;1.10;;
77432;SDS011;66752;48.576;8.876;2023-04-29T08:30:09;3.28;;;1.30;;
77432;SDS011;66752;48.576;8.876;2023-04-29T08:32:35;3.88;;;1.30;;
77432;SDS011;66752;48.576;8.876;2023-04-29T08:35:01;2.97;;;1.20;;
77432;SDS011;66752;48.576;8.876;2023-04-29T08:37:27;3.03;;;1.02;;
77432;SDS011;66752;48.576;8.876;2023-04-29T08:39:53;3.40;;;1.15;;
77432;SDS011;66752;48.576;8.876;2023-04-29T08:42:20;2.42;;;1.05;;
77432;SDS011;66752;48.576;8.876;2023-04-29T08:44:53;2.63;;;0.93;;
77432;SDS011;66752;48.576;8.876;2023-04-29T08:47:19;2.45;;;0.82;;
77432;SDS011;66752;48.576;8.876;2023-04-29T08:49:46;3.25;;;1.00;;
77432;SDS011;66752;48.576;8.876;2023-04-29T08:52:12;3.08;;;1.00;;
77432;SDS011;66752;48.576;8.876;2023-04-29T08:54:38;3.05;;;1.10;;
77432;SDS011;66752;48.576;8.876;2023-04-29T08:59:31;2.15;;;0.90;;
77432;SDS011;66752;48.576;8.876;2023-04-29T09:01:57;3.00;;;1.05;;
77432;SDS011;66752;48.576;8.876;2023-04-29T09:04:37;5.43;;;1.27;;
77432;SDS011;66752;48.576;8.876;2023-04-29T09:07:05;2.33;;;0.95;;
77432;SDS011;66752;48.576;8.876;2023-04-29T09:09:32;2.67;;;0.90;;
77432;SDS011;66752;48.576;8.876;2023-04-29T09:11:58;2.55;;;0.90;;
77432;SDS011;66752;48.576;8.876;2023-04-29T09:14:24;3.80;;;1.00;;
77432;SDS011;66752;48.576;8.876;2023-04-29T09:16:50;3.60;;;1.08;;
77432;SDS011;66752;48.576;8.876;2023-04-29T09:19:28;3.58;;;1.30;;
77432;SDS011;66752;48.576;8.876;2023-04-29T09:21:55;3.30;;;1.23;;
77432;SDS011;66752;48.576;8.876;2023-04-29T09:24:28;2.58;;;1.00;;
77432;SDS011;66752;48.576;8.876;2023-04-29T09:26:55;3.00;;;1.17;;
77432;SDS011;66752;48.576;8.876;2023-04-29T09:29:22;2.38;;;0.90;;
77432;SDS011;66752;48.576;8.876;2023-04-29T09:31:48;3.13;;;1.00;;
77432;SDS011;66752;48.576;8.876;2023-04-29T09:34:14;2.83;;;1.00;;
77432;SDS011;66752;48.576;8.876;2023-04-29T09:36:42;1.85;;;0.80;;
77432;SDS011;66752;48.576;8.876;2023-04-29T09:39:12;3.63;;;0.90;;
77432;SDS011;66752;48.576;8.876;2023-04-29T09:41:55;3.60;;;0.98;;
77432;SDS011;66752;48.576;8.876;2023-04-29T09:44:24;2.85;;;0.82;;
77432;SDS011;66752;48.576;8.876;2023-04-29T09:46:58;2.53;;;0.90;;
77432;SDS011;66752;48.576;8.876;2023-04-29T09:49:30;2.70;;;1.02;;
77432;SDS011;66752;48.576;8.876;2023-04-29T09:52:00;2.47;;;1.02;;
77432;SDS011;66752;48.576;8.876;2023-04-29T09:54:27;3.08;;;1.00;;
77432;SDS011;66752;48.576;8.876;2023-04-29T09:56:54;2.28;;;0.90;;
77432;SDS011;66752;48.576;8.876;2023-04-29T09:59:21;2.85;;;0.93;;
77432;SDS011;66752;48.576;8.876;2023-04-29T10:01:48;3.78;;;1.00;;
77432;SDS011;66752;48.576;8.876;2023-04-29T10:04:14;3.15;;;1.02;;
77432;SDS011;66752;48.576;8.876;2023-04-29T10:06:41;3.35;;;1.20;;
77432;SDS011;66752;48.576;8.876;2023-04-29T10:09:09;2.92;;;1.08;;
77432;SDS011;66752;48.576;8.876;2023-04-29T10:11:40;3.25;;;1.20;;
77432;SDS011;66752;48.576;8.876;2023-04-29T10:14:06;2.97;;;1.17;;
77432;SDS011;66752;48.576;8.876;2023-04-29T10:16:33;4.30;;;1.27;;
77432;SDS011;66752;48.576;8.876;2023-04-29T10:18:59;5.00;;;1.48;;
77432;SDS011;66752;48.576;8.876;2023-04-29T10:21:30;3.40;;;1.10;;
77432;SDS011;66752;48.576;8.876;2023-04-29T10:23:57;4.00;;;1.20;;
77432;SDS011;66752;48.576;8.876;2023-04-29T10:26:26;3.10;;;1.20;;
77432;SDS011;66752;48.576;8.876;2023-04-29T10:28:56;3.28;;;0.90;;
77432;SDS011;66752;48.576;8.876;2023-04-29T10:31:27;3.30;;;1.05;;
77432;SDS011;66752;48.576;8.876;2023-04-29T10:33:57;3.88;;;1.00;;
77432;SDS011;66752;48.576;8.876;2023-04-29T10:36:24;3.10;;;1.20;;
77432;SDS011;66752;48.576;8.876;2023-04-29T10:38:53;8.63;;;2.05;;
77432;SDS011;66752;48.576;8.876;2023-04-29T10:41:21;3.42;;;1.52;;
77432;SDS011;66752;48.576;8.876;2023-04-29T10:43:52;3.85;;;1.92;;
77432;SDS011;66752;48.576;8.876;2023-04-29T10:46:19;3.97;;;1.42;;
77432;SDS011;66752;48.576;8.876;2023-04-29T10:48:46;3.08;;;1.20;;
77432;SDS011;66752;48.576;8.876;2023-04-29T10:51:12;3.65;;;1.38;;
77432;SDS011;66752;48.576;8.876;2023-04-29T10:56:07;3.17;;;1.10;;
77432;SDS011;66752;48.576;8.876;2023-04-29T11:01:00;3.42;;;1.30;;
77432;SDS011;66752;48.576;8.876;2023-04-29T11:06:12;3.30;;;1.10;;
77432;SDS011;66752;48.576;8.876;2023-04-29T11:08:38;3.63;;;1.63;;
77432;SDS011;66752;48.576;8.876;2023-04-29T11:11:04;3.25;;;1.10;;
77432;SDS011;66752;48.576;8.876;2023-04-29T11:13:39;4.65;;;1.17;;
77432;SDS011;66752;48.576;8.876;2023-04-29T11:16:06;3.33;;;1.10;;
77432;SDS011;66752;48.576;8.876;2023-04-29T11:18:33;2.58;;;1.02;;
77432;SDS011;66752;48.576;8.876;2023-04-29T11:23:34;2.92;;;1.20;;
77432;SDS011;66752;48.576;8.876;2023-04-29T11:26:00;3.20;;;1.10;;
77432;SDS011;66752;48.576;8.876;2023-04-29T11:28:27;3.53;;;1.58;;
77432;SDS011;66752;48.576;8.876;2023-04-29T11:30:53;6.65;;;1.52;;
77432;SDS011;66752;48.576;8.876;2023-04-29T11:33:19;3.30;;;1.33;;
77432;SDS011;66752;48.576;8.876;2023-04-29T11:35:45;4.07;;;1.50;;
77432;SDS011;66752;48.576;8.876;2023-04-29T11:38:11;3.78;;;1.33;;
77432;SDS011;66752;48.576;8.876;2023-04-29T11:40:40;3.38;;;1.38;;
77432;SDS011;66752;48.576;8.876;2023-04-29T11:43:06;3.75;;;1.30;;
77432;SDS011;66752;48.576;8.876;2023-04-29T11:45:34;3.20;;;1.40;;
77432;SDS011;66752;48.576;8.876;2023-04-29T11:48:01;3.83;;;1.70;;
77432;SDS011;66752;48.576;8.876;2023-04-29T11:50:28;4.18;;;1.42;;
77432;SDS011;66752;48.576;8.876;2023-04-29T11:52:56;4.00;;;1.70;;
77432;SDS011;66752;48.576;8.876;2023-04-29T11:57:48;6.22;;;1.70;;
77432;SDS011;66752;48.576;8.876;2023-04-29T12:00:16;3.75;;;1.55;;
77432;SDS011;66752;48.576;8.876;2023-04-29T12:02:43;4.15;;;1.50;;
77432;SDS011;66752;48.576;8.876;2023-04-29T12:05:10;4.25;;;1.85;;
77432;SDS011;66752;48.576;8.876;2023-04-29T12:07:37;4.05;;;2.00;;
77432;SDS011;66752;48.576;8.876;2023-04-29T12:10:06;5.88;;;1.70;;
77432;SDS011;66752;48.576;8.876;2023-04-29T12:12:33;3.83;;;1.40;;
77432;SDS011;66752;48.576;8.876;2023-04-29T12:15:01;3.92;;;1.63;;
77432;SDS011;66752;48.576;8.876;2023-04-29T12:17:27;5.85;;;2.03;;
77432;SDS011;66752;48.576;8.876;2023-04-29T12:22:19;4.45;;;1.67;;
77432;SDS011;66752;48.576;8.876;2023-04-29T12:24:45;3.95;;;1.92;;
77432;SDS011;66752;48.576;8.876;2023-04-29T12:29:38;3.97;;;1.70;;
77432;SDS011;66752;48.576;8.876;2023-04-29T12:32:05;4.20;;;1.73;;
77432;SDS011;66752;48.576;8.876;2023-04-29T12:34:31;4.00;;;1.60;;
77432;SDS011;66752;48.576;8.876;2023-04-29T12:36:57;5.00;;;1.67;;
77432;SDS011;66752;48.576;8.876;2023-04-29T12:39:24;4.28;;;1.73;;
77432;SDS011;66752;48.576;8.876;2023-04-29T12:41:53;4.22;;;1.60;;
77432;SDS011;66752;48.576;8.876;2023-04-29T12:44:19;6.90;;;1.45;;
77432;SDS011;66752;48.576;8.876;2023-04-29T12:46:46;3.70;;;1.52;;
77432;SDS011;66752;48.576;8.876;2023-04-29T12:49:12;3.72;;;1.50;;
77432;SDS011;66752;48.576;8.876;2023-04-29T12:51:38;8.25;;;1.90;;
77432;SDS011;66752;48.576;8.876;2023-04-29T12:54:05;5.43;;;1.50;;
77432;SDS011;66752;48.576;8.876;2023-04-29T12:56:31;4.72;;;1.73;;
77432;SDS011;66752;48.576;8.876;2023-04-29T12:59:06;4.47;;;1.60;;
77432;SDS011;66752;48.576;8.876;2023-04-29T13:01:34;3.50;;;1.50;;
77432;SDS011;66752;48.576;8.876;2023-04-29T13:04:00;3.90;;;1.40;;
77432;SDS011;66752;48.576;8.876;2023-04-29T13:06:26;5.40;;;1.73;;
77432;SDS011;66752;48.576;8.876;2023-04-29T13:08:52;3.75;;;1.50;;
77432;SDS011;66752;48.576;8.876;2023-04-29T13:13:44;4.60;;;1.30;;
77432;SDS011;66752;48.576;8.876;2023-04-29T13:16:10;3.75;;;1.27;;
77432;SDS011;66752;48.576;8.876;2023-04-29T13:21:03;4.05;;;1.33;;
77432;SDS011;66752;48.576;8.876;2023-04-29T13:23:29;4.25;;;1.50;;
77432;SDS011;66752;48.576;8.876;2023-04-29T13:25:55;3.70;;;1.52;;
77432;SDS011;66752;48.576;8.876;2023-04-29T13:28:21;3.97;;;1.33;;
77432;SDS011;66752;48.576;8.876;2023-04-29T13:30:47;4.43;;;1.77;;
77432;SDS011;66752;48.576;8.876;2023-04-29T13:33:14;4.38;;;1.42;;
77432;SDS011;66752;48.576;8.876;2023-04-29T13:35:40;4.20;;;1.60;;
77432;SDS011;66752;48.576;8.876;2023-04-29T13:38:07;3.78;;;1.67;;
77432;SDS011;66752;48.576;8.876;2023-04-29T13:40:33;4.32;;;1.45;;
77432;SDS011;66752;48.576;8.876;2023-04-29T13:45:25;3.83;;;1.42;;
77432;SDS011;66752;48.576;8.876;2023-04-29T13:47:52;4.00;;;1.20;;
77432;SDS011;66752;48.576;8.876;2023-04-29T13:50:18;5.18;;;1.50;;
77432;SDS011;66752;48.576;8.876;2023-04-29T13:52:44;2.95;;;1.10;;
77432;SDS011;66752;48.576;8.876;2023-04-29T13:55:10;5.70;;;1.60;;
77432;SDS011;66752;48.576;8.876;2023-04-29T13:57:36;4.38;;;1.60;;
77432;SDS011;66752;48.576;8.876;2023-04-29T14:00:03;3.33;;;1.42;;
77432;SDS011;66752;48.576;8.876;2023-04-29T14:02:32;3.35;;;1.40;;
77432;SDS011;66752;48.576;8.876;2023-04-29T14:04:58;7.93;;;2.78;;
77432;SDS011;66752;48.576;8.876;2023-04-29T14:07:24;5.45;;;3.10;;
77432;SDS011;66752;48.576;8.876;2023-04-29T14:09:50;6.13;;;3.20;;
77432;SDS011;66752;48.576;8.876;2023-04-29T14:12:16;6.30;;;3.58;;
77432;SDS011;66752;48.576;8.876;2023-04-29T14:14:42;5.70;;;3.20;;
77432;SDS011;66752;48.576;8.876;2023-04-29T14:17:08;5.57;;;3.00;;
77432;SDS011;66752;48.576;8.876;2023-04-29T14:22:00;6.15;;;3.20;;
77432;SDS011;66752;48.576;8.876;2023-04-29T14:24:26;5.80;;;2.60;;
77432;SDS011;66752;48.576;8.876;2023-04-29T14:26:52;6.40;;;3.35;;
77432;SDS011;66752;48.576;8.876;2023-04-29T14:29:19;9.20;;;3.65;;
77432;SDS011;66752;48.576;8.876;2023-04-29T14:31:45;8.63;;;3.90;;
77432;SDS011;66752;48.576;8.876;2023-04-29T14:34:11;7.10;;;3.58;;
77432;SDS011;66752;48.576;8.876;2023-04-29T14:36:37;6.80;;;3.38;;
77432;SDS011;66752;48.576;8.876;2023-04-29T14:39:03;7.25;;;3.33;;
77432;SDS011;66752;48.576;8.876;2023-04-29T14:41:29;5.07;;;3.20;;
77432;SDS011;66752;48.576;8.876;2023-04-29T14:43:55;7.05;;;3.15;;
77432;SDS011;66752;48.576;8.876;2023-04-29T14:46:21;6.88;;;3.20;;
77432;SDS011;66752;48.576;8.876;2023-04-29T14:48:47;5.90;;;3.08;;
77432;SDS011;66752;48.576;8.876;2023-04-29T14:53:39;8.23;;;3.45;;
77432;SDS011;66752;48.576;8.876;2023-04-29T14:56:05;6.47;;;3.35;;
77432;SDS011;66752;48.576;8.876;2023-04-29T14:58:32;6.80;;;3.85;;
77432;SDS011;66752;48.576;8.876;2023-04-29T15:00:58;6.80;;;3.67;;
77432;SDS011;66752;48.576;8.876;2023-04-29T15:03:24;7.47;;;4.15;;
77432;SDS011;66752;48.576;8.876;2023-04-29T15:05:50;5.45;;;3.10;;
77432;SDS011;66752;48.576;8.876;2023-04-29T15:08:16;10.13;;;4.05;;
77432;SDS011;66752;48.576;8.876;2023-04-29T15:13:10;6.63;;;4.13;;
77432;SDS011;66752;48.576;8.876;2023-04-29T15:15:36;6.20;;;3.80;;
77432;SDS011;66752;48.576;8.876;2023-04-29T15:18:02;6.97;;;3.78;;
77432;SDS011;66752;48.576;8.876;2023-04-29T15:20:30;8.07;;;4.32;;
77432;SDS011;66752;48.576;8.876;2023-04-29T15:22:56;6.60;;;3.90;;
77432;SDS011;66752;48.576;8.876;2023-04-29T15:25:22;6.90;;;3.70;;
77432;SDS011;66752;48.576;8.876;2023-04-29T15:27:48;6.70;;;3.80;;
77432;SDS011;66752;48.576;8.876;2023-04-29T15:30:14;7.78;;;3.72;;
77432;SDS011;66752;48.576;8.876;2023-04-29T15:32:41;7.03;;;4.40;;
77432;SDS011;66752;48.576;8.876;2023-04-29T15:35:08;8.38;;;4.75;;
77432;SDS011;66752;48.576;8.876;2023-04-29T15:37:34;8.07;;;4.53;;
77432;SDS011;66752;48.576;8.876;2023-04-29T15:40:00;7.25;;;3.90;;
77432;SDS011;66752;48.576;8.876;2023-04-29T15:42:26;6.85;;;4.07;;
77432;SDS011;66752;48.576;8.876;2023-04-29T15:44:52;8.80;;;4.50;;
77432;SDS011;66752;48.576;8.876;2023-04-29T15:47:18;7.60;;;4.30;;